METAR ET TAF INFORMATION
METAR FOR ENBL
ADDS - METARS form results

(0823 UTC 25 June 2019)
Data provider http://aviationweather.gov/metar/data/
 
METAR text: ENBL 250750Z 30002KT 9999 -RA FEW040 BKN070 13/11 Q1023
Conditions at: ENBL (FORDE/BRINGELAND, NO) observed 0750 UTC 25 June 2019
Temperature: 13.0°C (55°F)
Dewpoint: 11.0°C (52°F) [RH = 88%]
Pressure (altimeter): 30.21 inches Hg (1023.0 mb)
Winds: from the WNW (300 degrees) at 2 MPH (2 knots; 1.0 m/s)
Visibility: 6 or more miles (10+ km)
Ceiling: 7000 feet AGL
Clouds: few clouds at 4000 feet AGL
broken clouds at 7000 feet AGL
Weather: -RA  (light rain)

 AÉROPORT DE AÉROPORT

 INFORMATIONS DE PISTE
Piste 07 Longueur de la piste 3084 ft Largeur de la piste 0 ft
Élévation de la piste 1034 ft Seuil de la piste déplacés 0 ft Runway heading 0
Piste 25 Longueur de la piste 3084 ft Largeur de la piste 0 ft
Élévation de la piste 1046 ft Seuil de la piste déplacés 0 ft Runway heading 0

 AÉROPORT FRÉQUENCES
Type AFIS Nom Bringeland Féquence 118.45 MHZ

 SIDA DE NAVIGATION
Type NDB Nom Bringeland Féquence 374 KHZ
Type NDB Nom Fleten Féquence 345 KHZ
Type NDB Nom Langeneset Féquence 339 KHZ



Powered by Virtual Airlines Manager [v2.6.2]